createdAt,value
2023-01-11T00:00:18.969Z,91.80
2023-01-11T00:01:18.980Z,87.90
2023-01-11T00:02:18.973Z,112.90
2023-01-11T00:03:18.976Z,116.40
2023-01-11T00:04:19.031Z,119.80
2023-01-11T00:05:18.932Z,129.50
2023-01-11T00:06:18.944Z,119.40
2023-01-11T00:07:18.967Z,126.20
2023-01-11T00:08:18.925Z,148.70
2023-01-11T00:09:18.924Z,132.90
2023-01-11T00:10:18.922Z,129.60
2023-01-11T00:11:18.892Z,129.20
2023-01-11T00:12:18.910Z,126.90
2023-01-11T00:13:18.952Z,154.60
2023-01-11T00:14:18.881Z,156.40
2023-01-11T00:15:18.897Z,159.00
2023-01-11T00:16:18.926Z,156.30
2023-01-11T00:17:18.866Z,163.40
2023-01-11T00:18:18.873Z,154.60
2023-01-11T00:19:18.869Z,165.50
2023-01-11T00:20:18.877Z,171.80
2023-01-11T00:21:18.850Z,166.40
2023-01-11T00:22:18.846Z,152.70
2023-01-11T00:23:18.834Z,149.40
2023-01-11T00:24:18.817Z,143.00
2023-01-11T00:25:18.893Z,124.10
2023-01-11T00:26:18.821Z,135.40
2023-01-11T00:27:18.810Z,128.80
2023-01-11T00:28:18.825Z,122.30
2023-01-11T00:29:18.802Z,136.00
2023-01-11T00:30:18.792Z,142.10
2023-01-11T00:31:18.851Z,159.80
2023-01-11T00:32:18.772Z,146.50
2023-01-11T00:33:18.772Z,156.20
2023-01-11T00:34:18.800Z,154.10
2023-01-11T00:35:18.772Z,163.00
2023-01-11T00:36:18.765Z,152.50
2023-01-11T00:37:18.834Z,149.30
2023-01-11T00:38:18.728Z,138.00
2023-01-11T00:39:18.734Z,152.00
2023-01-11T00:40:18.736Z,142.60
2023-01-11T00:41:18.803Z,129.40
2023-01-11T00:42:18.716Z,129.10
2023-01-11T00:43:18.700Z,137.70
2023-01-11T00:44:18.704Z,152.70
2023-01-11T00:45:18.780Z,140.10
2023-01-11T00:46:18.753Z,146.20
2023-01-11T00:47:18.687Z,146.80
2023-01-11T00:48:18.697Z,159.30
2023-01-11T00:49:18.672Z,144.40
2023-01-11T00:50:18.657Z,174.60
2023-01-11T00:51:19.711Z,165.90
2023-01-11T00:52:18.650Z,158.30
2023-01-11T00:53:18.648Z,157.40
2023-01-11T00:54:18.699Z,155.90
2023-01-11T00:55:18.632Z,146.10
2023-01-11T00:56:18.638Z,140.40
2023-01-11T00:57:18.653Z,140.70
2023-01-11T00:58:18.612Z,128.60
2023-01-11T00:59:18.610Z,141.50
2023-01-11T01:00:18.603Z,125.70
2023-01-11T01:01:18.656Z,136.70
2023-01-11T01:02:18.633Z,141.70
2023-01-11T01:03:18.589Z,145.50
2023-01-11T01:04:18.597Z,145.80
2023-01-11T01:05:18.593Z,146.80
2023-01-11T01:06:18.578Z,134.20
2023-01-11T01:07:18.581Z,153.80
2023-01-11T01:08:18.580Z,125.50
2023-01-11T01:09:18.553Z,149.40
2023-01-11T01:10:18.608Z,153.60
2023-01-11T01:11:18.563Z,152.50
2023-01-11T01:12:18.531Z,154.70
2023-01-11T01:13:18.569Z,154.90
2023-01-11T01:14:18.529Z,161.10
2023-01-11T01:15:18.513Z,147.70
2023-01-11T01:16:18.547Z,144.10
2023-01-11T01:17:18.507Z,139.30
2023-01-11T01:18:18.517Z,136.50
2023-01-11T01:19:18.489Z,161.50
2023-01-11T01:20:18.509Z,145.00
2023-01-11T01:21:18.491Z,160.80
2023-01-11T01:22:18.469Z,147.80
2023-01-11T01:23:18.483Z,141.70
2023-01-11T01:24:18.499Z,150.30
2023-01-11T01:25:18.449Z,156.60
2023-01-11T01:26:18.450Z,139.90
2023-01-11T01:27:18.480Z,150.10
2023-01-11T01:28:18.449Z,139.90
2023-01-11T01:29:18.508Z,143.30
2023-01-11T01:30:18.425Z,138.90
2023-01-11T01:31:18.473Z,127.80
2023-01-11T01:32:18.440Z,139.70
2023-01-11T01:33:18.432Z,134.00
2023-01-11T01:34:18.456Z,136.30
2023-01-11T01:35:18.404Z,135.60
2023-01-11T01:36:18.391Z,136.10
2023-01-11T01:37:18.377Z,144.60
2023-01-11T01:38:18.404Z,131.40
2023-01-11T01:39:18.369Z,111.20
2023-01-11T01:40:18.382Z,116.90
2023-01-11T01:41:18.379Z,138.60
2023-01-11T01:42:18.359Z,116.50
2023-01-11T01:43:18.350Z,128.60
2023-01-11T01:44:18.356Z,116.60
2023-01-11T01:45:18.346Z,133.60
2023-01-11T01:46:18.369Z,112.70
2023-01-11T01:47:18.351Z,125.20
2023-01-11T01:48:18.311Z,117.10
2023-01-11T01:49:18.308Z,130.00
2023-01-11T01:50:18.353Z,133.40
2023-01-11T01:51:18.304Z,116.50
2023-01-11T01:52:18.303Z,118.40
2023-01-11T01:53:18.324Z,117.90
2023-01-11T01:54:18.299Z,121.10
2023-01-11T01:55:18.317Z,110.30
2023-01-11T01:56:18.304Z,118.40
2023-01-11T01:57:18.270Z,132.80
2023-01-11T01:58:18.262Z,141.30
2023-01-11T01:59:18.337Z,126.00
2023-01-11T02:00:18.268Z,116.70
2023-01-11T02:01:18.270Z,125.40
2023-01-11T02:02:18.274Z,119.90
2023-01-11T02:03:18.227Z,121.80
2023-01-11T02:04:18.227Z,111.80
2023-01-11T02:05:18.230Z,109.30
2023-01-11T02:06:18.252Z,116.70
2023-01-11T02:07:18.209Z,129.10
2023-01-11T02:08:18.202Z,129.40
2023-01-11T02:09:18.200Z,134.00
2023-01-11T02:10:18.189Z,126.30
2023-01-11T02:11:18.208Z,113.20
2023-01-11T02:12:18.189Z,126.40
2023-01-11T02:13:18.165Z,113.90
2023-01-11T02:14:18.186Z,125.90
2023-01-11T02:15:18.149Z,123.80
2023-01-11T02:16:18.200Z,123.40
2023-01-11T02:17:18.185Z,118.60
2023-01-11T02:18:18.165Z,119.40
2023-01-11T02:19:18.134Z,122.50
2023-01-11T02:20:18.150Z,119.40
2023-01-11T02:21:18.118Z,127.80
2023-01-11T02:22:18.118Z,131.80
2023-01-11T02:23:18.151Z,116.50
2023-01-11T02:24:18.105Z,131.10
2023-01-11T02:25:18.082Z,130.00
2023-01-11T02:26:19.104Z,133.50
2023-01-11T02:27:18.085Z,132.40
2023-01-11T02:28:18.090Z,129.10
2023-01-11T02:29:18.131Z,125.60
2023-01-11T02:30:18.074Z,135.20
2023-01-11T02:31:19.615Z,138.80
2023-01-11T02:32:18.081Z,125.00
2023-01-11T02:33:18.082Z,132.10
2023-01-11T02:34:19.068Z,127.40
2023-01-11T02:35:18.034Z,131.40
2023-01-11T02:36:18.025Z,120.60
2023-01-11T02:37:18.031Z,122.90
2023-01-11T02:38:18.024Z,131.80
2023-01-11T02:39:18.029Z,122.60
2023-01-11T02:40:18.034Z,125.80
2023-01-11T02:41:17.999Z,125.70
2023-01-11T02:42:18.009Z,124.80
2023-01-11T02:43:18.005Z,120.20
2023-01-11T02:44:18.019Z,115.60
2023-01-11T02:45:17.992Z,113.80
2023-01-11T02:46:18.008Z,124.10
2023-01-11T02:47:17.958Z,117.70
2023-01-11T02:48:17.985Z,117.90
2023-01-11T02:49:17.951Z,122.60
2023-01-11T02:50:17.997Z,128.70
2023-01-11T02:51:17.959Z,124.90
2023-01-11T02:52:17.939Z,127.10
2023-01-11T02:53:17.947Z,123.60
2023-01-11T02:54:17.934Z,128.70
2023-01-11T02:55:17.932Z,123.00
2023-01-11T02:56:17.925Z,114.40
2023-01-11T02:57:17.918Z,120.00
2023-01-11T02:58:17.902Z,131.50
2023-01-11T02:59:17.899Z,132.10
2023-01-11T03:00:17.937Z,125.60
2023-01-11T03:01:17.934Z,125.60
2023-01-11T03:02:17.881Z,122.00
2023-01-11T03:03:17.879Z,124.30
2023-01-11T03:04:17.864Z,133.30
2023-01-11T03:05:17.884Z,119.40
2023-01-11T03:06:17.891Z,123.20
2023-01-11T03:07:17.848Z,120.00
2023-01-11T03:08:17.834Z,128.20
2023-01-11T03:09:17.898Z,125.90
2023-01-11T03:10:17.821Z,129.50
2023-01-11T03:11:17.839Z,125.10
2023-01-11T03:12:17.821Z,121.90
2023-01-11T03:13:17.814Z,126.90
2023-01-11T03:14:17.806Z,138.70
2023-01-11T03:15:17.821Z,127.60
2023-01-11T03:16:18.874Z,123.80
2023-01-11T03:17:17.794Z,128.10
2023-01-11T03:18:17.807Z,125.30
2023-01-11T03:19:17.795Z,133.60
2023-01-11T03:20:17.766Z,124.70
2023-01-11T03:21:17.844Z,131.70
2023-01-11T03:22:17.788Z,119.90
2023-01-11T03:23:17.763Z,126.70
2023-01-11T03:24:17.757Z,118.40
2023-01-11T03:25:17.802Z,119.20
2023-01-11T03:26:17.747Z,127.80
2023-01-11T03:27:17.749Z,124.40
2023-01-11T03:28:17.758Z,125.50
2023-01-11T03:29:17.718Z,134.00
2023-01-11T03:30:17.725Z,126.50
2023-01-11T03:31:17.769Z,117.60
2023-01-11T03:32:17.730Z,125.00
2023-01-11T03:33:17.706Z,130.80
2023-01-11T03:34:17.710Z,128.30
2023-01-11T03:35:17.688Z,120.40
2023-01-11T03:36:17.702Z,127.60
2023-01-11T03:37:17.727Z,118.50
2023-01-11T03:38:17.667Z,120.70
2023-01-11T03:39:17.673Z,132.70
2023-01-11T03:40:17.671Z,122.50
2023-01-11T03:41:17.652Z,118.70
2023-01-11T03:42:17.646Z,119.20
2023-01-11T03:43:18.143Z,114.00
2023-01-11T03:44:18.631Z,117.80
2023-01-11T03:45:17.643Z,114.20
2023-01-11T03:46:17.675Z,116.00
2023-01-11T03:47:17.627Z,112.80
2023-01-11T03:48:17.628Z,107.40
2023-01-11T03:49:17.616Z,114.80
2023-01-11T03:50:17.601Z,122.80
2023-01-11T03:51:17.616Z,118.50
2023-01-11T03:52:17.619Z,116.40
2023-01-11T03:53:17.604Z,116.00
2023-01-11T03:54:17.597Z,116.00
2023-01-11T03:55:17.593Z,123.60
2023-01-11T03:56:17.562Z,107.40
2023-01-11T03:57:17.566Z,109.10
2023-01-11T03:58:17.577Z,123.50
2023-01-11T03:59:17.555Z,121.90
2023-01-11T04:00:17.552Z,119.50
2023-01-11T04:01:17.602Z,110.60
2023-01-11T04:02:17.536Z,122.90
2023-01-11T04:03:17.530Z,120.10
2023-01-11T04:04:17.605Z,128.30
2023-01-11T04:05:17.541Z,119.70
2023-01-11T04:06:17.507Z,121.70
2023-01-11T04:07:17.525Z,124.70
2023-01-11T04:08:17.502Z,111.30
2023-01-11T04:09:17.506Z,120.60
2023-01-11T04:10:17.523Z,125.80
2023-01-11T04:11:17.483Z,125.40
2023-01-11T04:12:17.477Z,113.80
2023-01-11T04:13:17.471Z,113.80
2023-01-11T04:14:17.515Z,118.40
2023-01-11T04:15:17.474Z,127.00
2023-01-11T04:16:17.472Z,120.90
2023-01-11T04:17:17.443Z,120.90
2023-01-11T04:18:17.445Z,116.90
2023-01-11T04:19:17.441Z,122.40
2023-01-11T04:20:17.461Z,126.80
2023-01-11T04:21:17.439Z,111.90
2023-01-11T04:22:17.429Z,121.80
2023-01-11T04:23:17.433Z,115.60
2023-01-11T04:24:17.406Z,119.40
2023-01-11T04:25:17.415Z,119.70
2023-01-11T04:26:17.493Z,123.70
2023-01-11T04:27:17.394Z,129.50
2023-01-11T04:28:17.382Z,125.30
2023-01-11T04:29:17.399Z,126.90
2023-01-11T04:30:17.393Z,113.00
2023-01-11T04:31:17.440Z,109.40
2023-01-11T04:32:17.457Z,118.30
2023-01-11T04:33:17.359Z,127.50
2023-01-11T04:34:17.349Z,121.50
2023-01-11T04:35:17.367Z,127.90
2023-01-11T04:36:17.341Z,128.30
2023-01-11T04:37:17.347Z,124.30
2023-01-11T04:38:17.336Z,132.30
2023-01-11T04:39:17.341Z,123.80
2023-01-11T04:40:17.364Z,127.30
2023-01-11T04:41:17.322Z,140.60
2023-01-11T04:42:17.306Z,120.10
2023-01-11T04:43:17.294Z,126.30
2023-01-11T04:44:17.337Z,125.00
2023-01-11T04:45:17.295Z,134.00
2023-01-11T04:46:17.296Z,121.20
2023-01-11T04:47:17.367Z,116.70
2023-01-11T04:48:17.269Z,109.60
2023-01-11T04:49:17.261Z,123.30
2023-01-11T04:50:17.312Z,122.40
2023-01-11T04:51:17.243Z,123.00
2023-01-11T04:52:17.285Z,127.20
2023-01-11T04:53:17.315Z,119.20
2023-01-11T04:54:17.228Z,110.50
2023-01-11T04:55:17.225Z,125.30
2023-01-11T04:56:17.237Z,110.70
2023-01-11T04:57:17.345Z,119.80
2023-01-11T04:58:17.212Z,127.30
2023-01-11T04:59:17.212Z,117.20
2023-01-11T05:00:17.223Z,124.90
2023-01-11T05:01:17.275Z,103.30
2023-01-11T05:02:17.205Z,117.30
2023-01-11T05:03:17.296Z,102.50
2023-01-11T05:04:17.237Z,107.00
2023-01-11T05:05:17.191Z,106.90
2023-01-11T05:06:17.169Z,117.10
2023-01-11T05:07:17.226Z,85.80
2023-01-11T05:08:17.173Z,91.30
2023-01-11T05:09:17.159Z,100.80
2023-01-11T05:10:17.149Z,104.60
2023-01-11T05:11:17.124Z,107.10
2023-01-11T05:12:17.133Z,89.80
2023-01-11T05:13:17.148Z,97.90
2023-01-11T05:14:17.125Z,100.00
2023-01-11T05:15:17.134Z,96.30
2023-01-11T05:16:17.144Z,98.60
2023-01-11T05:17:17.158Z,108.40
2023-01-11T05:18:17.112Z,99.10
2023-01-11T05:19:17.610Z,103.80
2023-01-11T05:20:17.117Z,97.40
2023-01-11T05:21:17.079Z,98.50
2023-01-11T05:22:17.072Z,100.30
2023-01-11T05:23:17.078Z,102.20
2023-01-11T05:24:18.102Z,85.00
2023-01-11T05:25:17.061Z,92.10
2023-01-11T05:26:17.069Z,102.80
2023-01-11T05:27:17.071Z,102.90
2023-01-11T05:28:17.071Z,104.60
2023-01-11T05:29:17.057Z,106.50
2023-01-11T05:30:17.040Z,86.70
2023-01-11T05:31:17.107Z,87.70
2023-01-11T05:32:17.038Z,91.20
2023-01-11T05:33:17.079Z,109.70
2023-01-11T05:34:17.046Z,101.80
2023-01-11T05:35:17.038Z,93.20
2023-01-11T05:36:17.197Z,100.50
2023-01-11T05:37:16.997Z,99.70
2023-01-11T05:38:17.027Z,96.60
2023-01-11T05:39:16.995Z,100.00
2023-01-11T05:40:17.000Z,100.20
2023-01-11T05:41:17.005Z,106.70
2023-01-11T05:42:16.978Z,96.50
2023-01-11T05:43:16.949Z,91.70
2023-01-11T05:44:16.978Z,114.40
2023-01-11T05:45:16.957Z,96.40
2023-01-11T05:46:17.013Z,118.20
2023-01-11T05:47:16.953Z,116.00
2023-01-11T05:48:16.922Z,99.10
2023-01-11T05:49:16.987Z,93.00
2023-01-11T05:50:16.987Z,87.40
2023-01-11T05:51:16.931Z,89.30
2023-01-11T05:52:16.907Z,90.30
2023-01-11T05:53:16.912Z,81.90
2023-01-11T05:54:16.940Z,97.00
2023-01-11T05:55:16.918Z,98.00
2023-01-11T05:56:16.886Z,91.70
2023-01-11T05:57:16.903Z,92.40
2023-01-11T05:58:16.862Z,99.20
2023-01-11T05:59:16.915Z,94.90
2023-01-11T06:00:16.932Z,101.20
2023-01-11T06:01:16.886Z,100.00
2023-01-11T06:02:16.938Z,97.50
2023-01-11T06:03:16.935Z,97.70
2023-01-11T06:04:16.852Z,92.90
2023-01-11T06:05:16.840Z,95.30
2023-01-11T06:06:16.820Z,101.00
2023-01-11T06:07:16.832Z,97.40
2023-01-11T06:08:16.812Z,90.60
2023-01-11T06:09:16.837Z,101.60
2023-01-11T06:10:16.827Z,92.50
2023-01-11T06:11:16.878Z,89.00
2023-01-11T06:12:16.806Z,100.10
2023-01-11T06:13:16.828Z,82.10
2023-01-11T06:14:16.803Z,81.10
2023-01-11T06:15:16.775Z,88.80
2023-01-11T06:16:16.826Z,84.70
2023-01-11T06:17:16.805Z,89.00
2023-01-11T06:18:16.744Z,93.00
2023-01-11T06:19:16.797Z,98.10
2023-01-11T06:20:16.748Z,91.90
2023-01-11T06:21:16.763Z,82.90
2023-01-11T06:22:16.728Z,81.20
2023-01-11T06:23:17.752Z,77.40
2023-01-11T06:24:16.715Z,85.60
2023-01-11T06:25:16.713Z,85.50
2023-01-11T06:26:16.752Z,85.70
2023-01-11T06:27:16.699Z,90.80
2023-01-11T06:28:16.713Z,93.50
2023-01-11T06:29:16.721Z,93.70
2023-01-11T06:30:16.702Z,86.50
2023-01-11T06:31:17.871Z,90.20
2023-01-11T06:32:17.671Z,90.70
2023-01-11T06:33:16.692Z,87.40
2023-01-11T06:34:16.680Z,82.50
2023-01-11T06:35:16.652Z,90.10
2023-01-11T06:36:16.674Z,98.90
2023-01-11T06:37:16.658Z,90.50
2023-01-11T06:38:16.681Z,83.70
2023-01-11T06:39:16.701Z,83.50
2023-01-11T06:40:16.634Z,83.00
2023-01-11T06:41:16.630Z,83.90
2023-01-11T06:42:16.646Z,76.70
2023-01-11T06:43:16.619Z,68.80
2023-01-11T06:44:16.627Z,70.90
2023-01-11T06:45:16.607Z,57.70
2023-01-11T06:46:16.660Z,63.70
2023-01-11T06:47:16.595Z,52.00
2023-01-11T06:48:16.578Z,53.50
2023-01-11T06:49:16.601Z,45.10
2023-01-11T06:50:16.565Z,40.40
2023-01-11T06:51:16.551Z,40.90
2023-01-11T06:52:16.567Z,36.70
2023-01-11T06:53:16.565Z,28.20
2023-01-11T06:54:16.531Z,35.90
2023-01-11T06:55:16.583Z,34.80
2023-01-11T06:56:16.532Z,32.10
2023-01-11T06:57:16.523Z,30.00
2023-01-11T06:58:16.529Z,26.40
2023-01-11T06:59:16.543Z,26.60
2023-01-11T07:00:16.520Z,27.40
2023-01-11T07:01:16.632Z,27.40
2023-01-11T07:02:16.488Z,22.70
2023-01-11T07:03:16.486Z,24.60
2023-01-11T07:04:16.491Z,22.70
2023-01-11T07:05:18.876Z,24.90
2023-01-11T07:06:17.488Z,25.60
2023-01-11T07:07:16.484Z,25.40
2023-01-11T07:08:16.499Z,25.10
2023-01-11T07:09:16.465Z,20.40
2023-01-11T07:10:16.456Z,24.70
2023-01-11T07:11:16.505Z,19.70
2023-01-11T07:12:16.445Z,18.30
2023-01-11T07:13:16.521Z,22.00
2023-01-11T07:14:16.442Z,19.90
2023-01-11T07:15:16.439Z,20.80
2023-01-11T07:16:16.491Z,19.80
2023-01-11T07:17:16.423Z,19.80
2023-01-11T07:18:17.019Z,19.00
2023-01-11T07:19:16.428Z,20.30
2023-01-11T07:20:16.407Z,17.70
2023-01-11T07:21:16.419Z,17.90
2023-01-11T07:22:16.416Z,26.60
2023-01-11T07:23:16.426Z,20.90
2023-01-11T07:24:16.388Z,23.50
2023-01-11T07:25:16.375Z,15.20
2023-01-11T07:26:16.479Z,16.00
2023-01-11T07:27:16.363Z,13.10
2023-01-11T07:28:16.368Z,13.70
2023-01-11T07:29:16.407Z,9.90
2023-01-11T07:30:16.370Z,14.30
2023-01-11T07:31:17.430Z,11.60
2023-01-11T07:32:16.350Z,9.50
2023-01-11T07:33:16.349Z,8.70
2023-01-11T07:34:16.329Z,16.50
2023-01-11T07:35:16.361Z,9.50
2023-01-11T07:36:16.372Z,8.90
2023-01-11T07:37:28.283Z,9.40
2023-01-11T07:38:17.333Z,13.40
2023-01-11T07:39:16.315Z,9.70
2023-01-11T07:40:16.300Z,9.00
2023-01-11T07:41:16.343Z,9.90
2023-01-11T07:42:16.287Z,10.20
2023-01-11T07:43:16.279Z,11.90
2023-01-11T07:44:16.308Z,8.00
2023-01-11T07:45:16.326Z,9.10
2023-01-11T07:46:16.347Z,7.20
2023-01-11T07:47:16.350Z,8.30
2023-01-11T07:48:16.264Z,7.10
2023-01-11T07:49:16.262Z,8.50
2023-01-11T07:50:16.243Z,9.70
2023-01-11T07:51:16.280Z,6.70
2023-01-11T07:52:16.252Z,7.80
2023-01-11T07:53:16.222Z,9.50
2023-01-11T07:54:16.243Z,8.20
2023-01-11T07:55:16.216Z,8.60
2023-01-11T07:56:16.196Z,7.20
2023-01-11T07:57:17.258Z,8.70
2023-01-11T07:58:16.197Z,7.20
2023-01-11T07:59:16.186Z,6.80
2023-01-11T08:00:16.196Z,8.00
2023-01-11T08:01:16.199Z,7.40
2023-01-11T08:02:16.250Z,6.70
2023-01-11T08:03:16.432Z,6.80
2023-01-11T08:04:16.194Z,7.10
2023-01-11T08:05:16.181Z,6.10
2023-01-11T08:06:16.181Z,9.10
2023-01-11T08:07:16.148Z,7.10
2023-01-11T08:08:16.145Z,7.50
2023-01-11T08:09:16.126Z,8.10
2023-01-11T08:10:16.130Z,6.10
2023-01-11T08:11:16.114Z,8.10
2023-01-11T08:12:16.109Z,6.40
2023-01-11T08:13:16.133Z,6.90
2023-01-11T08:14:16.159Z,6.70
2023-01-11T08:15:16.123Z,6.90
2023-01-11T08:16:16.157Z,8.90
2023-01-11T08:17:16.098Z,12.20
2023-01-11T08:18:16.098Z,15.90
2023-01-11T08:19:16.074Z,20.10
2023-01-11T08:20:16.091Z,27.90
2023-01-11T08:21:16.069Z,15.40
2023-01-11T08:22:16.068Z,10.20
2023-01-11T08:23:16.076Z,16.80
2023-01-11T08:24:16.060Z,17.70
2023-01-11T08:25:16.035Z,14.70
2023-01-11T08:26:16.038Z,7.90
2023-01-11T08:27:16.019Z,20.00
2023-01-11T08:28:16.023Z,17.20
2023-01-11T08:29:16.014Z,10.50
2023-01-11T08:30:16.028Z,14.70
2023-01-11T08:31:16.061Z,11.20
2023-01-11T08:32:16.014Z,12.30
2023-01-11T08:33:16.002Z,13.60
2023-01-11T08:34:16.023Z,9.00
2023-01-11T08:35:15.985Z,14.40
2023-01-11T08:36:15.974Z,15.30
2023-01-11T08:37:17.002Z,18.40
2023-01-11T08:38:15.974Z,15.70
2023-01-11T08:39:15.960Z,8.50
2023-01-11T08:40:15.979Z,13.10
2023-01-11T08:41:15.960Z,12.80
2023-01-11T08:42:15.961Z,15.30
2023-01-11T08:43:15.955Z,11.70
2023-01-11T08:44:22.360Z,14.50
2023-01-11T08:45:16.919Z,16.00
2023-01-11T08:46:16.018Z,18.10
2023-01-11T08:47:15.952Z,21.30
2023-01-11T08:48:15.927Z,12.90
2023-01-11T08:49:15.939Z,14.20
2023-01-11T08:50:15.918Z,10.00
2023-01-11T08:51:15.915Z,8.60
2023-01-11T08:52:15.911Z,5.10
2023-01-11T08:53:15.895Z,8.40
2023-01-11T08:54:15.906Z,5.50
2023-01-11T08:55:15.896Z,4.70
2023-01-11T08:56:15.861Z,6.20
2023-01-11T08:57:15.858Z,5.30
2023-01-11T08:58:15.876Z,4.10
2023-01-11T08:59:15.858Z,4.60
2023-01-11T09:00:15.846Z,4.70
2023-01-11T09:01:15.895Z,5.00
2023-01-11T09:02:15.847Z,5.60
2023-01-11T09:03:15.827Z,6.30
2023-01-11T09:04:24.705Z,7.40
2023-01-11T09:05:18.457Z,5.70
2023-01-11T09:06:16.819Z,4.50
2023-01-11T09:07:15.804Z,4.50
2023-01-11T09:08:15.830Z,4.40
2023-01-11T09:09:15.880Z,5.90
2023-01-11T09:10:15.843Z,5.90
2023-01-11T09:11:16.785Z,6.10
2023-01-11T09:12:15.805Z,6.30
2023-01-11T09:13:15.780Z,6.00
2023-01-11T09:14:15.764Z,5.70
2023-01-11T09:15:15.781Z,5.30
2023-01-11T09:16:15.772Z,5.80
2023-01-11T09:17:15.744Z,6.90
2023-01-11T09:18:15.748Z,7.00
2023-01-11T09:19:15.748Z,7.90
2023-01-11T09:20:15.761Z,7.10
2023-01-11T09:21:15.743Z,12.00
2023-01-11T09:22:15.744Z,7.50
2023-01-11T09:23:15.734Z,7.60
2023-01-11T09:24:15.715Z,5.50
2023-01-11T09:25:15.727Z,9.20
2023-01-11T09:26:15.808Z,10.40
2023-01-11T09:27:15.718Z,11.10
2023-01-11T09:28:15.691Z,8.10
2023-01-11T09:29:15.741Z,5.70
2023-01-11T09:30:15.703Z,9.40
2023-01-11T09:31:15.705Z,7.60
2023-01-11T09:32:15.668Z,6.90
2023-01-11T09:33:15.664Z,16.80
2023-01-11T09:34:15.666Z,7.80
2023-01-11T09:35:15.674Z,8.20
2023-01-11T09:36:15.663Z,6.50
2023-01-11T09:37:15.638Z,6.50
2023-01-11T09:38:15.636Z,8.80
2023-01-11T09:39:15.639Z,10.30
2023-01-11T09:40:15.656Z,8.00
2023-01-11T09:41:15.636Z,8.50
2023-01-11T09:42:15.649Z,8.60
2023-01-11T09:43:15.609Z,7.00
2023-01-11T09:44:15.626Z,8.80
2023-01-11T09:45:15.627Z,6.40
2023-01-11T09:46:15.677Z,10.90
2023-01-11T09:47:15.619Z,7.20
2023-01-11T09:48:15.596Z,6.60
2023-01-11T09:49:15.597Z,7.30
2023-01-11T09:50:15.575Z,7.00
2023-01-11T09:51:15.614Z,7.50
2023-01-11T09:52:15.603Z,6.00
2023-01-11T09:53:15.541Z,7.20
2023-01-11T09:54:15.542Z,7.20
2023-01-11T09:55:15.541Z,7.10
2023-01-11T09:56:15.537Z,7.20
2023-01-11T09:57:15.564Z,7.10
2023-01-11T09:58:16.571Z,5.90
2023-01-11T09:59:15.511Z,6.20
2023-01-11T10:00:15.552Z,5.00
2023-01-11T10:01:15.635Z,6.20
2023-01-11T10:02:18.014Z,4.70
2023-01-11T10:03:15.494Z,6.00
2023-01-11T10:04:15.502Z,5.60
2023-01-11T10:05:15.511Z,5.70
2023-01-11T10:06:15.474Z,5.60
2023-01-11T10:07:15.465Z,7.20
2023-01-11T10:18:25.683Z,6.00
2023-01-11T10:18:31.449Z,8.90
2023-01-11T10:18:33.752Z,5.30
2023-01-11T10:18:37.347Z,5.80
2023-01-11T10:18:42.707Z,5.50
2023-01-11T10:19:36.494Z,4.80
2023-01-11T10:20:17.498Z,5.80
2023-01-11T10:21:15.396Z,6.80
2023-01-11T10:22:15.386Z,6.30
2023-01-11T10:23:15.380Z,7.60
2023-01-11T10:24:15.388Z,6.70
2023-01-11T10:25:15.349Z,8.40
2023-01-11T10:26:15.344Z,7.80
2023-01-11T10:27:15.408Z,8.50
2023-01-11T10:28:15.404Z,9.10
2023-01-11T10:29:16.016Z,7.10
2023-01-11T10:30:15.328Z,6.90
2023-01-11T10:31:15.373Z,6.60
2023-01-11T10:32:15.381Z,5.30
2023-01-11T10:33:15.306Z,7.30
2023-01-11T10:34:15.325Z,6.70
2023-01-11T10:35:15.331Z,8.20
2023-01-11T10:36:15.299Z,7.40
2023-01-11T10:37:15.312Z,9.00
2023-01-11T10:38:15.267Z,7.30
2023-01-11T10:39:15.254Z,6.80
2023-01-11T10:40:15.319Z,7.80
2023-01-11T10:41:15.249Z,7.90
2023-01-11T10:42:15.246Z,7.50
2023-01-11T10:43:15.264Z,7.00
2023-01-11T10:44:15.225Z,8.40
2023-01-11T10:45:16.272Z,7.10
2023-01-11T10:46:15.217Z,7.60
2023-01-11T10:47:15.208Z,7.60
2023-01-11T10:48:15.205Z,7.20
2023-01-11T10:49:15.202Z,7.00
2023-01-11T10:50:15.210Z,7.10
2023-01-11T10:51:15.206Z,7.50
2023-01-11T10:52:15.239Z,5.30
2023-01-11T10:53:15.215Z,6.70
2023-01-11T10:54:15.180Z,6.80
2023-01-11T10:55:15.183Z,5.60
2023-01-11T10:56:15.194Z,5.80
2023-01-11T10:57:15.156Z,5.30
2023-01-11T10:58:15.163Z,4.80
2023-01-11T10:59:15.149Z,5.20
2023-01-11T11:00:15.131Z,5.10
2023-01-11T11:01:15.177Z,4.20
2023-01-11T11:02:15.286Z,5.40
2023-01-11T11:03:15.128Z,5.50
2023-01-11T11:04:15.141Z,6.30
2023-01-11T11:05:15.109Z,5.20
2023-01-11T11:06:15.103Z,4.30
2023-01-11T11:07:15.153Z,3.90
2023-01-11T11:08:15.093Z,4.00
2023-01-11T11:09:15.092Z,4.00
2023-01-11T11:10:15.076Z,4.10
2023-01-11T11:11:15.070Z,3.70
2023-01-11T11:12:15.075Z,3.40
2023-01-11T11:13:15.070Z,3.70
2023-01-11T11:14:15.054Z,4.40
2023-01-11T11:15:15.087Z,4.10
2023-01-11T11:16:15.147Z,4.50
2023-01-11T11:17:15.065Z,4.90
2023-01-11T11:18:15.044Z,4.50
2023-01-11T11:19:15.033Z,4.30
2023-01-11T11:20:15.002Z,4.40
2023-01-11T11:21:15.004Z,4.30
2023-01-11T11:22:15.043Z,4.40
2023-01-11T11:23:15.047Z,4.30
2023-01-11T11:24:14.976Z,4.70
2023-01-11T11:25:14.991Z,5.60
2023-01-11T11:26:14.977Z,5.30
2023-01-11T11:27:15.023Z,5.00
2023-01-11T11:28:14.946Z,4.60
2023-01-11T11:29:14.956Z,4.90
2023-01-11T11:30:14.945Z,5.20
2023-01-11T11:31:14.986Z,4.40
2023-01-11T11:32:14.939Z,5.00
2023-01-11T11:33:15.011Z,4.20
2023-01-11T11:34:14.925Z,4.60
2023-01-11T11:35:14.906Z,4.00
2023-01-11T11:36:14.895Z,4.30
2023-01-11T11:37:14.894Z,4.90
2023-01-11T11:38:14.921Z,5.70
2023-01-11T11:39:14.885Z,5.20
2023-01-11T11:40:14.869Z,6.00
2023-01-11T11:41:15.512Z,5.20
2023-01-11T11:42:14.868Z,5.60
2023-01-11T11:43:14.890Z,6.60
2023-01-11T11:44:14.891Z,4.60
2023-01-11T11:45:14.856Z,6.10
2023-01-11T11:46:19.380Z,5.10
2023-01-11T11:47:15.828Z,5.30
2023-01-11T11:48:14.868Z,6.00
2023-01-11T11:49:14.820Z,5.50
2023-01-11T11:50:15.947Z,5.80
2023-01-11T11:51:14.811Z,7.60
2023-01-11T11:52:14.806Z,5.30
2023-01-11T11:53:14.841Z,5.40
2023-01-11T11:54:14.800Z,5.90
2023-01-11T11:55:14.818Z,4.90
2023-01-11T11:56:14.775Z,5.70
2023-01-11T11:57:14.764Z,4.90
2023-01-11T11:58:14.779Z,5.30
2023-01-11T11:59:14.766Z,4.90
2023-01-11T12:00:14.744Z,4.60
2023-01-11T12:01:14.805Z,4.40
2023-01-11T12:02:14.791Z,5.10
2023-01-11T12:03:14.727Z,4.60
2023-01-11T12:04:14.717Z,5.30
2023-01-11T12:05:14.827Z,5.30
2023-01-11T12:06:14.708Z,4.30
2023-01-11T12:07:14.712Z,4.40
2023-01-11T12:08:14.680Z,4.50
2023-01-11T12:09:14.675Z,4.00
2023-01-11T12:10:14.739Z,4.50
2023-01-11T12:11:14.672Z,4.40
2023-01-11T12:12:14.691Z,7.90
2023-01-11T12:13:14.675Z,5.80
2023-01-11T12:14:14.672Z,4.80
2023-01-11T12:15:14.634Z,5.30
2023-01-11T12:16:14.703Z,5.00
2023-01-11T12:17:14.657Z,4.60
2023-01-11T12:18:15.494Z,4.20
2023-01-11T12:19:15.645Z,4.90
2023-01-11T12:20:14.684Z,4.10
2023-01-11T12:21:14.623Z,4.90
2023-01-11T12:22:14.618Z,4.30
2023-01-11T12:23:14.599Z,4.80
2023-01-11T12:24:14.620Z,14.10
2023-01-11T12:25:14.583Z,9.90
2023-01-11T12:26:14.663Z,11.80
2023-01-11T12:27:14.621Z,12.10
2023-01-11T12:28:14.583Z,11.40
2023-01-11T12:29:14.566Z,11.20
2023-01-11T12:30:14.590Z,6.30
2023-01-11T12:31:14.630Z,6.60
2023-01-11T12:32:14.524Z,6.80
2023-01-11T12:33:14.533Z,8.50
2023-01-11T12:34:14.531Z,11.20
2023-01-11T12:35:14.533Z,10.20
2023-01-11T12:36:14.539Z,11.50
2023-01-11T12:37:14.515Z,10.60
2023-01-11T12:38:14.486Z,6.60
2023-01-11T12:39:14.502Z,9.60
2023-01-11T12:40:14.596Z,9.30
2023-01-11T12:41:14.508Z,9.60
2023-01-11T12:42:14.474Z,8.40
2023-01-11T12:43:14.445Z,14.20
2023-01-11T12:44:14.490Z,29.30
2023-01-11T12:45:14.446Z,5.90
2023-01-11T12:46:14.576Z,27.00
2023-01-11T12:47:16.164Z,36.60
2023-01-11T12:48:14.417Z,20.30
2023-01-11T12:49:14.421Z,8.20
2023-01-11T12:50:14.554Z,22.40
2023-01-11T12:51:14.413Z,15.90
2023-01-11T12:52:14.410Z,18.20
2023-01-11T12:53:14.415Z,5.10
2023-01-11T12:54:14.380Z,3.60
2023-01-11T12:55:14.378Z,18.10
2023-01-11T12:56:14.396Z,10.10